Bird Town, Arkansas
Current Conditions -  °F | °C
As of 7:15 PM on Saturday 22 Nov 2014 (Local Time) from KCCA Reporting Station
Moderate Fog Moderate Fog  
Wind Chill: 48°   Ceiling: 100
Heat Index: 48°   Visibility: 0mi
Dew Point: 48°   Wind: 0mph
Humidity: 100%   Direction: NA
Pressure: 30"   Gusts: NA
Location:  35.2739°N, 92.5381°W
Report Text: KCCA 230115Z AUTO 00000KT M1/4SM FG OVC001 09/09 A3000 RMK AO2
Loading
Personal Weather Stations






























Interactive Weather Map New forecast layout! Learn more

10-Day Weather Forecast

Advertisements
Track Severe Weather on mobile